Time;durP1;ratioP1;P1;durP2;ratioP2;P2;SDS_P1;SDS_P2;PMS_P1;PMS_P2;Temp;Humidity;BMP_temperature;BMP_pressure;BME280_temperature;BME280_humidity;BME280_pressure;Samples;Min_cycle;Max_cycle;Signal;HPM_P1;HPM_P2
2022/03/13 00:02:19;;;;;;;0.20;0.20;;;;;;;20.15;32.30;101224.16;5142482;27;20497;-30
2022/03/13 00:04:49;;;;;;;0.20;0.20;;;;;;;20.15;32.13;101228.84;5142318;27;20199;-30
2022/03/13 00:07:19;;;;;;;0.20;0.20;;;;;;;20.14;32.15;101230.78;5142712;27;20076;-31
2022/03/13 00:09:49;;;;;;;0.20;0.20;;;;;;;20.15;32.35;101220.56;5124916;27;20719;-31
2022/03/13 00:12:15;;;;;;;0.20;0.20;;;;;;;20.15;32.31;101213.09;5142211;27;20089;-30
2022/03/13 00:14:43;;;;;;;0.20;0.20;;;;;;;20.16;32.00;101219.44;5142644;27;20043;-34
2022/03/13 00:17:16;;;;;;;0.20;0.20;;;;;;;20.15;32.09;101224.16;5143240;27;20211;-35
2022/03/13 00:19:42;;;;;;;0.20;0.20;;;;;;;20.16;32.07;101219.44;5142661;27;20525;-31
2022/03/13 00:22:09;;;;;;;0.20;0.20;;;;;;;20.16;31.98;101216.69;5142504;27;20041;-32
2022/03/13 00:24:35;;;;;;;0.20;0.20;;;;;;;20.15;32.20;101217.78;5142650;27;20101;-32
2022/03/13 00:27:01;;;;;;;0.20;0.20;;;;;;;20.16;32.07;101216.69;5144661;27;20053;-34
2022/03/13 00:29:27;;;;;;;0.20;0.20;;;;;;;20.15;32.17;101215.84;5144660;27;20045;-32
2022/03/13 00:31:52;;;;;;;0.20;0.20;;;;;;;20.16;32.48;101213.91;5125983;27;20062;-31
2022/03/13 00:34:19;;;;;;;0.20;0.20;;;;;;;20.15;31.98;101213.09;5143826;27;20512;-31
2022/03/13 00:36:44;;;;;;;0.20;0.20;;;;;;;20.15;32.29;101215.03;5143748;27;20070;-32
2022/03/13 00:39:11;;;;;;;0.20;0.20;;;;;;;20.15;32.13;101212.25;5144050;27;20043;-31
2022/03/13 00:41:38;;;;;;;0.20;0.20;;;;;;;20.15;32.35;101201.19;5141983;27;20046;-33
2022/03/13 00:44:05;;;;;;;0.20;0.20;;;;;;;20.14;32.25;101197.63;5143421;27;20043;-31
2022/03/13 00:46:31;;;;;;;0.20;0.20;;;;;;;20.15;32.10;101195.66;5143016;27;20074;-31
2022/03/13 00:48:57;;;;;;;0.20;0.20;;;;;;;20.15;32.31;101195.66;5141977;27;20043;-32
2022/03/13 00:51:22;;;;;;;0.20;0.20;;;;;;;20.15;32.38;101184.63;5140686;27;20106;-35
2022/03/13 00:53:48;;;;;;;0.20;0.20;;;;;;;20.16;32.22;101186.25;5143138;27;20045;-31
2022/03/13 00:56:14;;;;;;;0.20;0.20;;;;;;;20.15;32.13;101185.44;5141481;27;20337;-31
2022/03/13 00:58:40;;;;;;;0.20;0.20;;;;;;;20.16;32.45;101181.56;5142099;27;20069;-32
2022/03/13 01:01:07;;;;;;;0.20;0.20;;;;;;;20.15;32.02;101181.84;5142278;27;20043;-30
2022/03/13 01:06:13;;;;;;;0.20;0.20;;;;;;;20.15;32.23;101174.38;5170703;27;20201;-33
2022/03/13 01:08:40;;;;;;;0.20;0.20;;;;;;;20.15;32.39;101173.56;5148643;27;20047;-34
2022/03/13 01:11:06;;;;;;;0.20;0.20;;;;;;;20.15;32.17;101171.63;5149426;27;20486;-28
2022/03/13 01:13:31;;;;;;;0.20;0.20;;;;;;;20.16;32.29;101161.38;5147225;27;20078;-30
2022/03/13 01:16:11;;;;;;;0.20;0.20;;;;;;;20.16;32.28;101158.59;5145470;27;20504;-29
2022/03/13 01:18:42;;;;;;;0.20;0.20;;;;;;;20.15;32.33;101160.56;5126369;27;20062;-32
2022/03/13 01:21:08;;;;;;;0.20;0.20;;;;;;;20.15;32.23;101151.44;5145394;27;20047;-28
2022/03/13 01:23:34;;;;;;;0.20;0.20;;;;;;;20.15;32.32;101148.66;5145487;27;20074;-29
2022/03/13 01:28:59;;;;;;;0.20;0.20;;;;;;;20.14;32.51;101147.84;5159422;27;20252;-29
2022/03/13 01:31:26;;;;;;;0.20;0.20;;;;;;;20.14;32.07;101142.31;5150457;27;20397;-29
2022/03/13 01:33:52;;;;;;;0.20;0.20;;;;;;;20.15;32.09;101138.44;5149887;27;20073;-28
2022/03/13 01:36:18;;;;;;;0.20;0.20;;;;;;;20.15;32.37;101141.19;5144835;27;20042;-30
2022/03/13 01:38:43;;;;;;;0.20;0.20;;;;;;;20.14;32.27;101134.03;5138589;27;20065;-29
2022/03/13 01:41:09;;;;;;;0.20;0.20;;;;;;;20.14;32.45;101136.78;5137685;27;20213;-29
2022/03/13 01:43:36;;;;;;;0.20;0.20;;;;;;;20.15;32.35;101130.13;5119127;27;20096;-29
2022/03/13 01:46:03;;;;;;;0.20;0.20;;;;;;;20.14;32.09;101134.03;5138239;27;20050;-29
2022/03/13 01:48:29;;;;;;;0.20;0.20;;;;;;;20.14;32.36;101127.66;5136607;27;21545;-30
2022/03/13 01:50:55;;;;;;;0.20;0.20;;;;;;;20.15;32.24;101129.31;5137121;27;20074;-36
2022/03/13 01:53:21;;;;;;;0.20;0.20;;;;;;;20.14;32.41;101133.19;5138050;27;20070;-32
2022/03/13 01:55:48;;;;;;;0.20;0.20;;;;;;;20.14;32.33;101131.25;5137659;27;20071;-33
2022/03/13 01:58:15;;;;;;;0.20;0.20;;;;;;;20.14;32.40;101122.97;5137146;27;20100;-30
2022/03/13 02:00:41;;;;;;;0.20;0.20;;;;;;;20.15;32.13;101115.47;5136935;27;20096;-29
2022/03/13 02:03:07;;;;;;;0.20;0.20;;;;;;;20.15;32.25;101119.06;5137263;27;21423;-28
2022/03/13 02:05:34;;;;;;;0.20;0.20;;;;;;;20.15;32.05;101115.47;5138074;27;20085;-30
2022/03/13 02:08:00;;;;;;;0.20;0.20;;;;;;;20.15;32.42;101115.47;5137352;27;20395;-30
2022/03/13 02:10:26;;;;;;;0.20;0.20;;;;;;;20.14;32.49;101109.13;5137463;27;20070;-36
2022/03/13 02:12:52;;;;;;;0.20;0.20;;;;;;;20.14;32.07;101103.59;5136884;27;20396;-32
2022/03/13 02:15:18;;;;;;;0.20;0.20;;;;;;;20.15;32.29;101102.47;5137874;27;20058;-29
2022/03/13 02:17:43;;;;;;;0.20;0.20;;;;;;;20.15;32.49;101098.91;5136648;27;20058;-29
2022/03/13 02:20:15;;;;;;;0.20;0.20;;;;;;;20.16;32.55;101100.53;5137233;27;20273;-32
2022/03/13 02:22:45;;;;;;;0.20;0.20;;;;;;;20.15;32.45;101096.13;5137846;27;20097;-29
2022/03/13 02:25:17;;;;;;;0.20;0.20;;;;;;;20.15;32.17;101091.44;5137404;27;20081;-30
2022/03/13 02:27:43;;;;;;;0.20;0.20;;;;;;;20.16;32.22;101095.00;5136632;27;20078;-31
2022/03/13 02:30:09;;;;;;;0.20;0.20;;;;;;;20.15;32.13;101087.84;5136225;27;20078;-30
2022/03/13 02:32:35;;;;;;;0.20;0.20;;;;;;;20.14;32.35;101095.31;5137312;27;20599;-29
2022/03/13 02:35:01;;;;;;;0.20;0.20;;;;;;;20.15;32.08;101093.38;5137210;27;20073;-30
2022/03/13 02:37:42;;;;;;;0.20;0.20;;;;;;;20.14;32.31;101089.78;5137780;27;20070;-29
2022/03/13 02:40:22;;;;;;;0.17;0.17;;;;;;;20.15;32.40;101088.66;5124046;27;20218;-32
2022/03/13 02:42:50;;;;;;;0.20;0.20;;;;;;;20.14;32.26;101081.47;5122826;28;20305;-33
2022/03/13 02:45:32;;;;;;;0.10;0.10;;;;;;;20.14;32.13;101081.47;5105490;28;20047;-30
2022/03/13 02:48:00;;;;;;;0.20;0.20;;;;;;;20.14;32.25;101084.25;5122348;28;20419;-32
2022/03/13 02:50:25;;;;;;;0.10;0.10;;;;;;;20.15;32.39;101079.53;5120987;28;20093;-29
2022/03/13 02:52:51;;;;;;;0.30;0.30;;;;;;;20.16;32.23;101084.78;5122629;28;20059;-30
2022/03/13 02:55:17;;;;;;;0.20;0.20;;;;;;;20.15;32.17;101074.84;5124037;28;20104;-30
2022/03/13 02:57:43;;;;;;;0.20;0.20;;;;;;;20.15;32.31;101079.53;5103840;28;20055;-29
2022/03/13 03:00:09;;;;;;;0.20;0.20;;;;;;;20.15;32.13;101074.00;5122236;28;20722;-31
2022/03/13 03:02:35;;;;;;;0.20;0.20;;;;;;;20.15;32.29;101068.47;5121965;28;20099;-32
2022/03/13 03:05:06;;;;;;;0.20;0.20;;;;;;;20.15;32.17;101061.00;5123492;28;20062;-31
2022/03/13 03:07:34;;;;;;;0.20;0.20;;;;;;;20.15;32.39;101062.94;5122116;27;20486;-31
2022/03/13 03:10:00;;;;;;;0.20;0.20;;;;;;;20.14;32.24;101064.88;5124343;27;20067;-31
2022/03/13 03:12:27;;;;;;;0.20;0.20;;;;;;;20.15;32.23;101060.19;5121859;28;20550;-31
2022/03/13 03:14:52;;;;;;;0.20;0.20;;;;;;;20.14;32.16;101067.66;5123222;28;20398;-31
2022/03/13 03:17:18;;;;;;;0.20;0.20;;;;;;;20.15;32.47;101065.72;5123921;28;20080;-30
2022/03/13 03:19:44;;;;;;;0.10;0.10;;;;;;;20.16;32.30;101075.66;5121569;28;20051;-31
2022/03/13 03:22:12;;;;;;;0.20;0.20;;;;;;;20.15;32.51;101080.38;5122194;28;20082;-30
2022/03/13 03:24:38;;;;;;;0.20;0.20;;;;;;;20.16;32.20;101086.72;5122528;28;20311;-31
2022/03/13 03:27:04;;;;;;;0.20;0.20;;;;;;;20.15;32.23;101074.84;5123334;28;20047;-30
2022/03/13 03:29:30;;;;;;;0.20;0.20;;;;;;;20.16;32.41;101082.00;5122406;28;20193;-30
2022/03/13 03:31:56;;;;;;;0.20;0.20;;;;;;;20.15;32.51;101080.38;5104142;28;20047;-31
2022/03/13 03:34:25;;;;;;;0.20;0.20;;;;;;;20.16;32.14;101078.41;5122965;28;20043;-29
2022/03/13 03:36:54;;;;;;;0.20;0.20;;;;;;;20.16;32.41;101089.47;5122615;28;20402;-32
2022/03/13 03:39:21;;;;;;;0.20;0.20;;;;;;;20.16;32.14;101079.25;5121250;28;20088;-30
2022/03/13 03:41:48;;;;;;;0.20;0.20;;;;;;;20.15;32.56;101080.38;5122869;28;20470;-30
2022/03/13 03:44:14;;;;;;;0.20;0.20;;;;;;;20.15;32.09;101079.53;5123029;28;20491;-31
2022/03/13 03:46:42;;;;;;;0.20;0.20;;;;;;;20.14;32.22;101067.66;5121907;28;20492;-29
2022/03/13 03:49:08;;;;;;;0.10;0.10;;;;;;;20.15;32.30;101074.00;5122528;28;20473;-29
2022/03/13 03:51:34;;;;;;;0.20;0.20;;;;;;;20.16;32.42;101078.41;5120102;27;20047;-34
2022/03/13 03:54:00;;;;;;;0.20;0.20;;;;;;;20.16;32.28;101070.13;5121760;28;20425;-34
2022/03/13 03:56:26;;;;;;;0.20;0.20;;;;;;;20.16;32.64;101073.72;5123431;28;20432;-31
2022/03/13 03:58:52;;;;;;;0.20;0.20;;;;;;;20.14;32.33;101073.19;5120584;28;20100;-29
2022/03/13 04:01:18;;;;;;;0.20;0.20;;;;;;;20.16;32.49;101072.88;5121277;28;20078;-34
2022/03/13 04:03:44;;;;;;;0.20;0.20;;;;;;;20.15;32.33;101061.00;5121118;28;20055;-31
2022/03/13 04:06:10;;;;;;;0.20;0.20;;;;;;;20.15;32.30;101062.94;5121907;28;20076;-33
2022/03/13 04:08:36;;;;;;;0.20;0.20;;;;;;;20.16;32.30;101062.66;5121799;28;20039;-32
2022/03/13 04:11:02;;;;;;;0.20;0.20;;;;;;;20.15;32.20;101057.41;5103502;28;20578;-34
2022/03/13 04:13:29;;;;;;;0.20;0.20;;;;;;;20.16;32.16;101061.84;5122869;28;20080;-32
2022/03/13 04:15:55;;;;;;;0.20;0.20;;;;;;;20.15;32.43;101060.19;5104409;28;20422;-29
2022/03/13 04:18:21;;;;;;;0.20;0.20;;;;;;;20.14;32.41;101056.59;5121881;28;20047;-29
2022/03/13 04:20:47;;;;;;;0.20;0.20;;;;;;;20.14;32.15;101053.84;5120190;28;20478;-31
2022/03/13 04:23:13;;;;;;;0.20;0.20;;;;;;;20.15;32.34;101066.53;5123082;28;20099;-31
2022/03/13 04:25:38;;;;;;;0.20;0.20;;;;;;;20.15;32.50;101061.00;5121655;28;20051;-33
2022/03/13 04:28:04;;;;;;;0.20;0.20;;;;;;;20.15;32.23;101058.25;5120914;28;20099;-34
2022/03/13 04:30:31;;;;;;;0.20;0.20;;;;;;;20.16;32.36;101059.06;5123055;27;20620;-29
2022/03/13 04:32:57;;;;;;;0.20;0.20;;;;;;;20.14;32.46;101064.88;5121745;28;20113;-32
2022/03/13 04:35:24;;;;;;;0.20;0.20;;;;;;;20.15;32.16;101061.00;5103124;28;20042;-34
2022/03/13 04:37:50;;;;;;;0.20;0.20;;;;;;;20.14;32.35;101051.06;5122800;28;20082;-34
2022/03/13 04:40:16;;;;;;;0.20;0.20;;;;;;;20.15;32.13;101055.47;5121652;28;20035;-32
2022/03/13 04:42:41;;;;;;;0.20;0.20;;;;;;;20.15;32.25;101054.66;5121925;28;20301;-30
2022/03/13 04:45:07;;;;;;;0.20;0.20;;;;;;;20.15;32.18;101038.88;5103628;28;20138;-30
2022/03/13 04:47:34;;;;;;;0.20;0.20;;;;;;;20.15;32.25;101041.66;5120665;28;20050;-31
2022/03/13 04:49:59;;;;;;;0.20;0.20;;;;;;;20.17;32.13;101041.38;5119440;28;20475;-34
2022/03/13 04:52:26;;;;;;;0.20;0.20;;;;;;;20.16;32.28;101037.78;5121717;28;20066;-31
2022/03/13 04:54:51;;;;;;;0.20;0.20;;;;;;;20.15;32.43;101038.06;5120994;28;20707;-32
2022/03/13 04:57:18;;;;;;;0.20;0.20;;;;;;;20.16;32.17;101053.53;5122340;28;20054;-30
2022/03/13 04:59:43;;;;;;;0.20;0.20;;;;;;;20.15;32.43;101065.72;5121651;28;20477;-33
2022/03/13 05:02:09;;;;;;;0.20;0.20;;;;;;;20.14;32.24;101044.72;5120555;27;20054;-35
2022/03/13 05:04:35;;;;;;;0.20;0.20;;;;;;;20.15;32.39;101057.41;5122582;28;20718;-31
2022/03/13 05:07:01;;;;;;;0.20;0.20;;;;;;;20.15;32.15;101065.72;5121686;28;20051;-30
2022/03/13 05:09:27;;;;;;;0.20;0.20;;;;;;;20.14;32.41;101045.53;5122395;28;20064;-32
2022/03/13 05:11:53;;;;;;;0.20;0.20;;;;;;;20.15;32.33;101058.25;5102680;28;20039;-30
2022/03/13 05:14:19;;;;;;;0.20;0.20;;;;;;;20.14;32.56;101051.06;5121610;28;20395;-31
2022/03/13 05:16:45;;;;;;;0.20;0.20;;;;;;;20.16;32.33;101061.84;5121220;28;20349;-30
2022/03/13 05:19:11;;;;;;;0.20;0.20;;;;;;;20.15;32.39;101052.72;5122313;28;20501;-32
2022/03/13 05:21:36;;;;;;;0.20;0.20;;;;;;;20.15;32.35;101043.59;5119500;28;20089;-32
2022/03/13 05:24:03;;;;;;;0.20;0.20;;;;;;;20.15;32.21;101044.41;5120744;27;20054;-32
2022/03/13 05:26:28;;;;;;;0.20;0.20;;;;;;;20.15;32.15;101052.72;5122000;28;20393;-31
2022/03/13 05:28:54;;;;;;;0.20;0.20;;;;;;;20.16;32.43;101039.72;5121086;28;20118;-32
2022/03/13 05:31:20;;;;;;;0.20;0.20;;;;;;;20.16;32.45;101045.25;5121065;28;20042;-31
2022/03/13 05:33:46;;;;;;;0.20;0.20;;;;;;;20.16;32.15;101040.53;5120800;28;20522;-33
2022/03/13 05:36:13;;;;;;;0.20;0.20;;;;;;;20.15;32.13;101044.41;5122293;28;20074;-34
2022/03/13 05:38:38;;;;;;;0.20;0.20;;;;;;;20.15;32.34;101046.34;5120005;28;20062;-32
2022/03/13 05:41:06;;;;;;;0.20;0.20;;;;;;;20.15;32.20;101044.41;5121696;28;20047;-31
2022/03/13 05:43:32;;;;;;;0.20;0.20;;;;;;;20.15;32.47;101040.81;5122270;28;20086;-31
2022/03/13 05:45:58;;;;;;;0.20;0.20;;;;;;;20.16;32.20;101056.31;5121849;28;20340;-33
2022/03/13 05:48:26;;;;;;;0.20;0.20;;;;;;;20.15;32.23;101058.25;5121971;28;20387;-31
2022/03/13 05:50:52;;;;;;;0.20;0.20;;;;;;;20.15;32.53;101057.41;5117893;28;20048;-31
2022/03/13 05:53:18;;;;;;;0.20;0.20;;;;;;;20.15;32.23;101066.53;5120414;28;20074;-32
2022/03/13 05:55:44;;;;;;;0.20;0.20;;;;;;;20.15;32.55;101061.00;5121851;28;20083;-30
2022/03/13 05:58:14;;;;;;;0.20;0.20;;;;;;;20.15;32.21;101062.94;5119724;28;20130;-31
2022/03/13 06:00:40;;;;;;;0.20;0.20;;;;;;;20.14;32.59;101067.66;5092785;28;20046;-32
2022/03/13 06:03:06;;;;;;;0.20;0.20;;;;;;;20.15;32.15;101069.31;5121831;28;20467;-31
2022/03/13 06:05:34;;;;;;;0.20;0.20;;;;;;;20.17;32.56;101080.09;5121181;28;20043;-31
2022/03/13 06:08:00;;;;;;;0.20;0.20;;;;;;;20.16;32.58;101078.41;5120131;27;20050;-33
2022/03/13 06:10:26;;;;;;;0.20;0.20;;;;;;;20.15;32.16;101085.91;5120689;28;20062;-34
2022/03/13 06:12:52;;;;;;;0.20;0.20;;;;;;;20.15;32.35;101083.13;5121571;27;20050;-32
2022/03/13 06:15:17;;;;;;;0.20;0.20;;;;;;;20.14;32.47;101081.47;5123789;28;20405;-32
2022/03/13 06:17:45;;;;;;;0.20;0.20;;;;;;;20.14;32.18;101081.47;5124992;28;20221;-34
2022/03/13 06:20:12;;;;;;;0.20;0.20;;;;;;;20.14;32.42;101081.47;5122577;28;20047;-31
2022/03/13 06:22:40;;;;;;;0.20;0.20;;;;;;;20.16;32.21;101070.94;5123783;28;20489;-32
2022/03/13 06:25:07;;;;;;;0.20;0.20;;;;;;;20.14;32.33;101084.25;5105743;28;20066;-29
2022/03/13 06:27:33;;;;;;;0.20;0.20;;;;;;;20.16;32.03;101083.94;5124529;28;20074;-30
2022/03/13 06:30:00;;;;;;;0.20;0.20;;;;;;;20.16;32.25;101083.94;5105769;28;20123;-33
2022/03/13 06:32:27;;;;;;;0.20;0.20;;;;;;;20.15;32.18;101076.78;5122832;28;20105;-32
2022/03/13 06:34:53;;;;;;;0.20;0.20;;;;;;;20.15;32.14;101080.38;5123895;28;20462;-33
2022/03/13 06:37:19;;;;;;;0.20;0.20;;;;;;;20.16;32.05;101083.94;5125331;28;20124;-32
2022/03/13 06:39:45;;;;;;;0.20;0.20;;;;;;;20.16;32.23;101081.19;5123390;28;20044;-32
2022/03/13 06:42:11;;;;;;;0.20;0.20;;;;;;;20.16;32.34;101092.25;5123161;28;20043;-32
2022/03/13 06:44:36;;;;;;;0.20;0.20;;;;;;;20.15;32.55;101085.91;5123940;28;20066;-32
2022/03/13 06:47:02;;;;;;;0.20;0.20;;;;;;;20.15;32.51;101083.13;5123639;28;20055;-31
2022/03/13 06:49:28;;;;;;;0.20;0.20;;;;;;;20.15;32.42;101087.84;5123898;28;20047;-31
2022/03/13 06:51:54;;;;;;;0.20;0.20;;;;;;;20.16;32.39;101083.94;5123663;28;20082;-31
2022/03/13 06:54:19;;;;;;;0.20;0.20;;;;;;;20.15;32.43;101085.06;5123527;28;20371;-31
2022/03/13 06:56:48;;;;;;;0.20;0.20;;;;;;;20.14;32.19;101075.13;5124451;28;20051;-31
2022/03/13 06:59:13;;;;;;;0.20;0.20;;;;;;;20.15;32.42;101088.66;5123901;28;20078;-29
2022/03/13 07:01:39;;;;;;;0.20;0.20;;;;;;;20.15;32.40;101085.06;5123662;28;20051;-30
2022/03/13 07:04:05;;;;;;;0.20;0.20;;;;;;;20.14;32.40;101084.25;5124067;28;20047;-32
2022/03/13 07:06:33;;;;;;;0.20;0.20;;;;;;;20.15;32.21;101088.66;5124069;27;20047;-31
2022/03/13 07:08:59;;;;;;;0.20;0.20;;;;;;;20.16;32.09;101083.94;5123255;27;20075;-32
2022/03/13 07:11:26;;;;;;;0.20;0.20;;;;;;;20.15;32.20;101072.06;5124518;28;20186;-30
2022/03/13 07:13:52;;;;;;;0.20;0.20;;;;;;;20.15;32.28;101069.31;5122707;28;20386;-35
2022/03/13 07:16:19;;;;;;;0.20;0.20;;;;;;;20.15;32.32;101074.84;5124313;28;20569;-29
2022/03/13 07:18:44;;;;;;;0.20;0.20;;;;;;;20.17;32.28;101071.81;5123896;28;20120;-29
2022/03/13 07:21:10;;;;;;;0.20;0.20;;;;;;;20.15;32.45;101079.53;5121206;28;20458;-31
2022/03/13 07:23:37;;;;;;;0.20;0.20;;;;;;;20.15;32.18;101087.84;5123188;28;20074;-31
2022/03/13 07:26:03;;;;;;;0.20;0.20;;;;;;;20.15;32.31;101085.06;5124165;27;20404;-31
2022/03/13 07:28:29;;;;;;;0.20;0.20;;;;;;;20.16;32.36;101078.41;5121494;28;20055;-31
2022/03/13 07:30:56;;;;;;;0.20;0.20;;;;;;;20.15;32.31;101083.13;5122695;28;20045;-29
2022/03/13 07:33:22;;;;;;;0.20;0.20;;;;;;;20.14;32.08;101089.78;5124091;28;20051;-30
2022/03/13 07:35:52;;;;;;;0.20;0.20;;;;;;;20.15;32.51;101091.44;5123790;28;20043;-28
2022/03/13 07:38:18;;;;;;;0.20;0.20;;;;;;;20.15;32.09;101085.91;5123223;28;20043;-30
2022/03/13 07:40:43;;;;;;;0.20;0.20;;;;;;;20.17;32.11;101091.16;5123589;28;20503;-31
2022/03/13 07:43:09;;;;;;;0.20;0.20;;;;;;;20.15;32.43;101090.59;5122399;28;20473;-31
2022/03/13 07:45:35;;;;;;;0.20;0.20;;;;;;;20.14;32.12;101081.47;5122823;28;20070;-30
2022/03/13 07:48:01;;;;;;;0.20;0.20;;;;;;;20.15;32.37;101079.53;5124234;28;20058;-31
2022/03/13 07:50:28;;;;;;;0.20;0.20;;;;;;;20.16;32.20;101078.41;5121363;28;20124;-30
2022/03/13 07:52:54;;;;;;;0.20;0.20;;;;;;;20.15;32.37;101076.78;5122649;28;20494;-32
2022/03/13 07:55:21;;;;;;;0.20;0.20;;;;;;;20.15;32.30;101080.38;5124466;28;20320;-32
2022/03/13 07:57:47;;;;;;;0.20;0.20;;;;;;;20.16;32.14;101083.94;5103998;28;20551;-31
2022/03/13 08:00:15;;;;;;;0.20;0.20;;;;;;;20.15;32.23;101083.13;5102834;28;20070;-31
2022/03/13 08:02:44;;;;;;;0.20;0.20;;;;;;;20.15;32.45;101077.59;5123265;28;20097;-31
2022/03/13 08:05:11;;;;;;;0.20;0.20;;;;;;;20.16;32.42;101072.88;5122188;28;20043;-31
2022/03/13 08:07:36;;;;;;;0.20;0.20;;;;;;;20.15;32.20;101077.59;5103334;28;20071;-33
2022/03/13 08:10:03;;;;;;;0.20;0.20;;;;;;;20.15;32.50;101079.53;5123649;28;20491;-31
2022/03/13 08:12:28;;;;;;;0.20;0.20;;;;;;;20.14;32.19;101075.94;5121932;28;20545;-34
2022/03/13 08:14:54;;;;;;;0.20;0.20;;;;;;;20.15;32.21;101074.00;5122953;28;20047;-34
2022/03/13 08:17:20;;;;;;;0.20;0.20;;;;;;;20.16;32.29;101081.19;5122845;28;20266;-33
2022/03/13 08:19:46;;;;;;;0.20;0.20;;;;;;;20.15;32.40;101068.47;5123103;28;20047;-32
2022/03/13 08:22:12;;;;;;;0.20;0.20;;;;;;;20.15;32.45;101077.59;5121790;28;20096;-31
2022/03/13 08:24:37;;;;;;;0.20;0.20;;;;;;;20.16;32.21;101070.13;5122689;28;20409;-32
2022/03/13 08:27:03;;;;;;;0.20;0.20;;;;;;;20.15;32.12;101074.84;5121275;28;20036;-31
2022/03/13 08:29:30;;;;;;;0.20;0.20;;;;;;;20.15;32.40;101080.38;5122197;28;20078;-31
2022/03/13 08:31:56;;;;;;;0.20;0.20;;;;;;;20.16;32.05;101072.88;5121793;28;20123;-31
2022/03/13 08:34:22;;;;;;;0.20;0.20;;;;;;;20.15;32.08;101085.06;5122000;28;20398;-31
2022/03/13 08:36:48;;;;;;;0.20;0.20;;;;;;;20.15;32.02;101085.06;5121838;27;20058;-31
2022/03/13 08:39:13;;;;;;;0.20;0.20;;;;;;;20.15;32.23;101083.13;5122148;28;20454;-30
2022/03/13 08:41:40;;;;;;;0.20;0.20;;;;;;;20.16;32.18;101083.94;5121155;28;20045;-33
2022/03/13 08:44:05;;;;;;;0.20;0.20;;;;;;;20.16;32.15;101075.66;5122537;28;20090;-31
2022/03/13 08:46:31;;;;;;;0.20;0.20;;;;;;;20.14;32.02;101083.41;5121314;28;20051;-32
2022/03/13 08:48:57;;;;;;;0.20;0.20;;;;;;;20.14;31.99;101078.72;5121679;28;20083;-34
2022/03/13 08:51:23;;;;;;;0.20;0.20;;;;;;;20.15;32.37;101083.13;5119992;28;20074;-31
2022/03/13 08:53:50;;;;;;;0.20;0.20;;;;;;;20.15;32.37;101087.84;5121366;28;21158;-30
2022/03/13 08:56:16;;;;;;;0.20;0.20;;;;;;;20.14;32.11;101072.38;5121621;28;20039;-32
2022/03/13 08:58:42;;;;;;;0.20;0.20;;;;;;;20.15;32.08;101069.31;5120570;28;20103;-31
2022/03/13 09:01:09;;;;;;;0.20;0.20;;;;;;;20.15;32.07;101071.25;5120880;28;20265;-31
2022/03/13 09:03:35;;;;;;;0.20;0.20;;;;;;;20.14;32.37;101081.47;5121868;28;20043;-31
2022/03/13 09:06:01;;;;;;;0.20;0.20;;;;;;;20.15;32.08;101068.47;5121023;27;20039;-32
2022/03/13 09:08:27;;;;;;;0.20;0.20;;;;;;;20.14;32.54;101059.38;5120834;28;20067;-30
2022/03/13 09:10:53;;;;;;;0.20;0.20;;;;;;;20.15;32.24;101065.72;5102946;28;20509;-31
2022/03/13 09:13:20;;;;;;;0.20;0.20;;;;;;;20.16;32.20;101059.06;5121701;28;20429;-31
2022/03/13 09:15:47;;;;;;;0.20;0.20;;;;;;;20.14;32.46;101061.31;5121209;28;20071;-32
2022/03/13 09:18:13;;;;;;;0.20;0.20;;;;;;;20.15;32.38;101062.94;5121416;28;20058;-32
2022/03/13 09:20:39;;;;;;;0.20;0.20;;;;;;;20.14;32.02;101055.78;5118776;28;20051;-33
2022/03/13 09:23:06;;;;;;;0.20;0.20;;;;;;;20.15;32.09;101062.94;5120911;28;20141;-30
2022/03/13 09:25:32;;;;;;;0.20;0.20;;;;;;;20.13;32.34;101060.47;5121375;28;20109;-31
2022/03/13 09:27:58;;;;;;;0.20;0.20;;;;;;;20.14;32.14;101059.38;5122646;28;20075;-30
2022/03/13 09:30:24;;;;;;;0.20;0.20;;;;;;;20.14;32.43;101056.59;5121516;28;20079;-33
2022/03/13 09:32:50;;;;;;;0.20;0.20;;;;;;;20.14;32.47;101067.66;5120918;28;20094;-32
2022/03/13 09:35:17;;;;;;;0.20;0.20;;;;;;;20.15;32.06;101054.66;5121312;28;20043;-31
2022/03/13 09:37:43;;;;;;;0.10;0.10;;;;;;;20.15;31.96;101058.25;5120072;28;20093;-32
2022/03/13 09:40:14;;;;;;;0.20;0.20;;;;;;;20.15;32.42;101063.78;5103924;28;20394;-29
2022/03/13 09:42:39;;;;;;;0.20;0.20;;;;;;;20.15;32.08;101063.78;5101884;28;20529;-31
2022/03/13 09:45:05;;;;;;;0.20;0.20;;;;;;;20.14;32.32;101053.00;5120602;28;20074;-31
2022/03/13 09:47:31;;;;;;;0.20;0.20;;;;;;;20.15;32.10;101057.41;5121591;28;20046;-29
2022/03/13 09:49:57;;;;;;;0.20;0.20;;;;;;;20.15;32.22;101051.88;5123008;27;20594;-31
2022/03/13 09:52:23;;;;;;;0.20;0.20;;;;;;;20.15;32.38;101054.66;5122933;28;20430;-31
2022/03/13 09:54:49;;;;;;;0.20;0.20;;;;;;;20.14;32.25;101055.78;5125467;28;20148;-29
2022/03/13 09:57:14;;;;;;;0.20;0.20;;;;;;;20.14;31.99;101064.88;5124954;28;20138;-30
2022/03/13 09:59:43;;;;;;;0.20;0.20;;;;;;;20.14;32.07;101053.84;5123040;28;20402;-29
2022/03/13 10:02:09;;;;;;;;;;;;;;;20.14;32.46;101053.00;5124552;27;20070;-30
2022/03/13 10:04:35;;;;;;;0.20;0.20;;;;;;;20.14;32.26;101051.06;5124024;28;19919;-32
2022/03/13 10:07:10;;;;;;;0.20;0.20;;;;;;;20.15;32.07;101041.66;5125785;28;20058;-31
2022/03/13 10:09:37;;;;;;;0.20;0.20;;;;;;;20.15;32.14;101038.88;5124164;28;20116;-30
2022/03/13 10:12:06;;;;;;;0.20;0.20;;;;;;;20.14;31.93;101051.06;5124941;28;20461;-30
2022/03/13 10:14:32;;;;;;;0.20;0.20;;;;;;;20.15;32.18;101040.81;5122944;28;20464;-32
2022/03/13 10:16:57;;;;;;;0.20;0.20;;;;;;;20.15;32.22;101038.06;5126187;28;20051;-31
2022/03/13 10:19:27;;;;;;;0.20;0.20;;;;;;;20.14;32.41;101039.19;5123733;28;20053;-32
2022/03/13 10:22:06;;;;;;;0.20;0.20;;;;;;;20.15;32.34;101038.06;5123159;28;20082;-29
2022/03/13 10:24:40;;;;;;;0.20;0.20;;;;;;;20.15;32.41;101038.06;5103938;28;20615;-31
2022/03/13 10:27:10;;;;;;;0.20;0.20;;;;;;;20.14;32.22;101040.00;5124330;28;20068;-32
2022/03/13 10:29:36;;;;;;;0.20;0.20;;;;;;;20.14;32.00;101031.72;5124161;28;20086;-32
2022/03/13 10:32:02;;;;;;;0.20;0.20;;;;;;;20.15;32.35;101038.88;5124938;28;20055;-32
2022/03/13 10:34:28;;;;;;;0.20;0.20;;;;;;;20.15;32.07;101029.78;5123035;28;20141;-31
2022/03/13 10:36:54;;;;;;;0.20;0.20;;;;;;;20.13;32.03;101035.59;5121908;28;20139;-32
2022/03/13 10:39:20;;;;;;;0.20;0.20;;;;;;;20.13;32.42;101026.47;5122407;28;20039;-34
2022/03/13 10:41:53;;;;;;;0.20;0.20;;;;;;;20.13;32.19;101027.31;5121321;28;20123;-34
2022/03/13 10:44:25;;;;;;;0.20;0.20;;;;;;;20.14;32.14;101019.81;5124325;28;20047;-31
2022/03/13 10:46:57;;;;;;;0.20;0.20;;;;;;;20.14;32.07;101020.66;5123941;28;21115;-33
2022/03/13 10:49:44;;;;;;;0.20;0.20;;;;;;;20.14;32.25;101017.88;5105703;28;20059;-32
2022/03/13 10:52:23;;;;;;;0.20;0.20;;;;;;;20.13;32.23;101010.72;5106181;28;20113;-34
2022/03/13 10:54:50;;;;;;;0.20;0.20;;;;;;;20.14;32.27;101004.06;5104225;28;20081;-33
2022/03/13 10:57:16;;;;;;;0.20;0.20;;;;;;;20.15;32.09;101013.19;5124175;28;20054;-31
2022/03/13 11:00:06;;;;;;;0.20;0.20;;;;;;;20.14;32.33;101000.47;5122084;27;20474;-32
2022/03/13 11:02:32;;;;;;;0.20;0.20;;;;;;;20.15;32.07;101007.66;5123201;28;20112;-32
2022/03/13 11:04:57;;;;;;;0.20;0.20;;;;;;;20.13;32.21;100999.66;5122683;27;20055;-31
2022/03/13 11:07:26;;;;;;;0.10;0.10;;;;;;;20.15;32.31;100999.34;5124314;28;20043;-30
2022/03/13 11:09:54;;;;;;;0.20;0.20;;;;;;;20.14;32.44;100994.94;5124579;28;20078;-32
2022/03/13 11:12:20;;;;;;;0.20;0.20;;;;;;;20.14;32.22;100997.72;5104374;28;20062;-33
2022/03/13 11:14:49;;;;;;;0.20;0.20;;;;;;;20.15;32.09;100999.34;5123768;28;20756;-31
2022/03/13 11:17:18;;;;;;;0.20;0.20;;;;;;;20.15;32.17;100997.41;5124641;28;20047;-34
2022/03/13 11:19:47;;;;;;;0.20;0.20;;;;;;;20.15;32.37;100997.41;5123516;28;20505;-31
2022/03/13 11:22:13;;;;;;;0.20;0.20;;;;;;;20.15;32.10;100994.66;5120771;28;20314;-31
2022/03/13 11:24:39;;;;;;;0.20;0.20;;;;;;;20.14;32.41;100986.66;5123294;28;20047;-29
2022/03/13 11:27:10;;;;;;;0.20;0.20;;;;;;;20.15;32.21;100994.66;5123972;28;20555;-31
2022/03/13 11:29:40;;;;;;;0.20;0.20;;;;;;;20.14;32.25;100990.25;5122428;28;20051;-30